sensor_id;sensor_type;location;lat;lon;timestamp;temperature;humidity
19805;DHT22;10062;51.052;13.756;2022-12-18T00:02:11;-5.60;1.00
19805;DHT22;10062;51.052;13.756;2022-12-18T00:04:43;-5.70;1.00
19805;DHT22;10062;51.052;13.756;2022-12-18T00:07:14;-5.60;1.00
19805;DHT22;10062;51.052;13.756;2022-12-18T00:09:46;-5.60;1.00
19805;DHT22;10062;51.052;13.756;2022-12-18T00:12:18;-5.60;1.00
19805;DHT22;10062;51.052;13.756;2022-12-18T00:14:49;-5.60;1.00
19805;DHT22;10062;51.052;13.756;2022-12-18T00:17:23;-5.60;1.00
19805;DHT22;10062;51.052;13.756;2022-12-18T00:19:54;-5.90;1.00
19805;DHT22;10062;51.052;13.756;2022-12-18T00:22:26;-6.10;1.00
19805;DHT22;10062;51.052;13.756;2022-12-18T00:24:58;-6.10;1.00
19805;DHT22;10062;51.052;13.756;2022-12-18T00:27:30;-6.00;1.00
19805;DHT22;10062;51.052;13.756;2022-12-18T00:30:02;-5.90;1.00
19805;DHT22;10062;51.052;13.756;2022-12-18T00:32:36;-5.90;1.00
19805;DHT22;10062;51.052;13.756;2022-12-18T00:35:08;-6.00;1.00
19805;DHT22;10062;51.052;13.756;2022-12-18T00:37:40;-6.00;1.00
19805;DHT22;10062;51.052;13.756;2022-12-18T00:40:12;-5.90;1.00
19805;DHT22;10062;51.052;13.756;2022-12-18T00:42:44;-6.00;1.00
19805;DHT22;10062;51.052;13.756;2022-12-18T00:45:28;-6.00;1.00
19805;DHT22;10062;51.052;13.756;2022-12-18T00:48:02;-6.00;1.00
19805;DHT22;10062;51.052;13.756;2022-12-18T00:50:33;-6.00;1.00
19805;DHT22;10062;51.052;13.756;2022-12-18T00:53:05;-6.00;1.00
19805;DHT22;10062;51.052;13.756;2022-12-18T00:55:41;-6.00;1.00
19805;DHT22;10062;51.052;13.756;2022-12-18T00:58:13;-6.00;1.00
19805;DHT22;10062;51.052;13.756;2022-12-18T01:00:45;-6.00;1.00
19805;DHT22;10062;51.052;13.756;2022-12-18T01:03:19;-6.10;1.00
19805;DHT22;10062;51.052;13.756;2022-12-18T01:05:50;-6.10;1.00
19805;DHT22;10062;51.052;13.756;2022-12-18T01:08:23;-6.10;1.00
19805;DHT22;10062;51.052;13.756;2022-12-18T01:10:55;-6.10;1.00
19805;DHT22;10062;51.052;13.756;2022-12-18T01:13:26;-6.40;1.00
19805;DHT22;10062;51.052;13.756;2022-12-18T01:15:58;-6.60;1.00
19805;DHT22;10062;51.052;13.756;2022-12-18T01:18:31;-6.60;1.00
19805;DHT22;10062;51.052;13.756;2022-12-18T01:21:06;-6.70;1.00
19805;DHT22;10062;51.052;13.756;2022-12-18T01:23:41;-6.80;1.00
19805;DHT22;10062;51.052;13.756;2022-12-18T01:26:15;-6.90;1.00
19805;DHT22;10062;51.052;13.756;2022-12-18T01:28:47;-7.10;1.00
19805;DHT22;10062;51.052;13.756;2022-12-18T01:31:21;-7.20;1.00
19805;DHT22;10062;51.052;13.756;2022-12-18T01:33:55;-7.40;1.00
19805;DHT22;10062;51.052;13.756;2022-12-18T01:36:29;-7.60;1.00
19805;DHT22;10062;51.052;13.756;2022-12-18T01:39:03;-7.40;1.00
19805;DHT22;10062;51.052;13.756;2022-12-18T01:41:35;-7.50;1.00
19805;DHT22;10062;51.052;13.756;2022-12-18T01:44:57;-7.60;1.00
19805;DHT22;10062;51.052;13.756;2022-12-18T01:47:33;-7.60;1.00
19805;DHT22;10062;51.052;13.756;2022-12-18T01:50:10;-7.30;1.00
19805;DHT22;10062;51.052;13.756;2022-12-18T01:52:45;-7.30;1.00
19805;DHT22;10062;51.052;13.756;2022-12-18T01:55:20;-7.20;1.00
19805;DHT22;10062;51.052;13.756;2022-12-18T01:57:56;-7.00;1.00
19805;DHT22;10062;51.052;13.756;2022-12-18T02:00:29;-6.90;1.00
19805;DHT22;10062;51.052;13.756;2022-12-18T02:03:01;-7.00;1.00
19805;DHT22;10062;51.052;13.756;2022-12-18T02:05:42;-7.00;1.00
19805;DHT22;10062;51.052;13.756;2022-12-18T02:08:20;-7.00;1.00
19805;DHT22;10062;51.052;13.756;2022-12-18T02:11:00;-6.90;1.00
19805;DHT22;10062;51.052;13.756;2022-12-18T02:13:41;-7.00;1.00
19805;DHT22;10062;51.052;13.756;2022-12-18T02:16:21;-7.00;1.00
19805;DHT22;10062;51.052;13.756;2022-12-18T02:18:58;-7.20;1.00
19805;DHT22;10062;51.052;13.756;2022-12-18T02:21:40;-7.30;1.00
19805;DHT22;10062;51.052;13.756;2022-12-18T02:24:27;-7.60;1.00
19805;DHT22;10062;51.052;13.756;2022-12-18T02:27:04;-7.50;1.00
19805;DHT22;10062;51.052;13.756;2022-12-18T02:29:40;-7.30;1.00
19805;DHT22;10062;51.052;13.756;2022-12-18T02:32:15;-7.50;1.00
19805;DHT22;10062;51.052;13.756;2022-12-18T02:34:49;-7.70;1.00
19805;DHT22;10062;51.052;13.756;2022-12-18T02:37:25;-7.60;1.00
19805;DHT22;10062;51.052;13.756;2022-12-18T02:39:59;-7.60;1.00
19805;DHT22;10062;51.052;13.756;2022-12-18T02:42:33;-7.60;1.00
19805;DHT22;10062;51.052;13.756;2022-12-18T02:45:07;-7.50;1.00
19805;DHT22;10062;51.052;13.756;2022-12-18T02:47:43;-7.40;1.00
19805;DHT22;10062;51.052;13.756;2022-12-18T02:50:22;-7.50;1.00
19805;DHT22;10062;51.052;13.756;2022-12-18T02:53:07;-7.30;1.00
19805;DHT22;10062;51.052;13.756;2022-12-18T02:55:49;-7.20;1.00
19805;DHT22;10062;51.052;13.756;2022-12-18T02:58:30;-7.30;1.00
19805;DHT22;10062;51.052;13.756;2022-12-18T03:01:15;-7.20;1.00
19805;DHT22;10062;51.052;13.756;2022-12-18T03:03:54;-7.10;1.00
19805;DHT22;10062;51.052;13.756;2022-12-18T03:06:32;-7.00;1.00
19805;DHT22;10062;51.052;13.756;2022-12-18T03:09:07;-7.00;1.00
19805;DHT22;10062;51.052;13.756;2022-12-18T03:11:44;-7.00;1.00
19805;DHT22;10062;51.052;13.756;2022-12-18T03:14:38;-7.10;1.00
19805;DHT22;10062;51.052;13.756;2022-12-18T03:17:15;-7.00;1.00
19805;DHT22;10062;51.052;13.756;2022-12-18T03:19:49;-6.80;1.00
19805;DHT22;10062;51.052;13.756;2022-12-18T03:22:23;-6.90;1.00
19805;DHT22;10062;51.052;13.756;2022-12-18T03:25:00;-6.90;1.00
19805;DHT22;10062;51.052;13.756;2022-12-18T03:27:36;-7.20;1.00
19805;DHT22;10062;51.052;13.756;2022-12-18T03:30:14;-7.30;1.00
19805;DHT22;10062;51.052;13.756;2022-12-18T03:32:53;-7.30;1.00
19805;DHT22;10062;51.052;13.756;2022-12-18T03:35:30;-7.30;1.00
19805;DHT22;10062;51.052;13.756;2022-12-18T03:38:03;-7.10;1.00
19805;DHT22;10062;51.052;13.756;2022-12-18T03:40:45;-7.00;1.00
19805;DHT22;10062;51.052;13.756;2022-12-18T03:43:29;-7.00;1.00
19805;DHT22;10062;51.052;13.756;2022-12-18T03:46:09;-7.10;1.00
19805;DHT22;10062;51.052;13.756;2022-12-18T03:48:46;-7.10;1.00
19805;DHT22;10062;51.052;13.756;2022-12-18T03:51:26;-7.00;1.00
19805;DHT22;10062;51.052;13.756;2022-12-18T03:54:02;-7.00;1.00
19805;DHT22;10062;51.052;13.756;2022-12-18T03:56:43;-6.90;1.00
19805;DHT22;10062;51.052;13.756;2022-12-18T03:59:19;-6.90;1.00
19805;DHT22;10062;51.052;13.756;2022-12-18T04:01:52;-6.80;1.00
19805;DHT22;10062;51.052;13.756;2022-12-18T04:04:27;-6.80;1.00
19805;DHT22;10062;51.052;13.756;2022-12-18T04:07:04;-6.80;1.00
19805;DHT22;10062;51.052;13.756;2022-12-18T04:09:40;-6.80;1.00
19805;DHT22;10062;51.052;13.756;2022-12-18T04:12:13;-6.90;1.00
19805;DHT22;10062;51.052;13.756;2022-12-18T04:14:44;-7.00;1.00
19805;DHT22;10062;51.052;13.756;2022-12-18T04:17:18;-7.10;1.00
19805;DHT22;10062;51.052;13.756;2022-12-18T04:19:51;-7.20;1.00
19805;DHT22;10062;51.052;13.756;2022-12-18T04:22:22;-7.20;1.00
19805;DHT22;10062;51.052;13.756;2022-12-18T04:24:59;-7.20;1.00
19805;DHT22;10062;51.052;13.756;2022-12-18T04:27:39;-7.20;1.00
19805;DHT22;10062;51.052;13.756;2022-12-18T04:30:12;-7.40;1.00
19805;DHT22;10062;51.052;13.756;2022-12-18T04:32:45;-7.50;1.00
19805;DHT22;10062;51.052;13.756;2022-12-18T04:35:17;-7.70;1.00
19805;DHT22;10062;51.052;13.756;2022-12-18T04:37:49;-7.80;1.00
19805;DHT22;10062;51.052;13.756;2022-12-18T04:40:21;-7.80;1.00
19805;DHT22;10062;51.052;13.756;2022-12-18T04:42:54;-7.90;1.00
19805;DHT22;10062;51.052;13.756;2022-12-18T04:45:26;-8.00;1.00
19805;DHT22;10062;51.052;13.756;2022-12-18T04:47:59;-8.10;1.00
19805;DHT22;10062;51.052;13.756;2022-12-18T04:50:31;-8.10;1.00
19805;DHT22;10062;51.052;13.756;2022-12-18T04:53:03;-8.10;1.00
19805;DHT22;10062;51.052;13.756;2022-12-18T04:55:35;-8.10;1.00
19805;DHT22;10062;51.052;13.756;2022-12-18T04:58:06;-8.10;1.00
19805;DHT22;10062;51.052;13.756;2022-12-18T05:00:38;-8.00;1.00
19805;DHT22;10062;51.052;13.756;2022-12-18T05:03:11;-8.00;1.00
19805;DHT22;10062;51.052;13.756;2022-12-18T05:05:43;-8.00;1.00
19805;DHT22;10062;51.052;13.756;2022-12-18T05:08:15;-7.90;1.00
19805;DHT22;10062;51.052;13.756;2022-12-18T05:10:46;-7.90;1.00
19805;DHT22;10062;51.052;13.756;2022-12-18T05:13:18;-7.90;1.00
19805;DHT22;10062;51.052;13.756;2022-12-18T05:15:51;-7.80;1.00
19805;DHT22;10062;51.052;13.756;2022-12-18T05:18:25;-7.90;1.00
19805;DHT22;10062;51.052;13.756;2022-12-18T05:20:57;-7.90;1.00
19805;DHT22;10062;51.052;13.756;2022-12-18T05:23:29;-8.00;1.00
19805;DHT22;10062;51.052;13.756;2022-12-18T05:26:03;-7.90;1.00
19805;DHT22;10062;51.052;13.756;2022-12-18T05:28:35;-7.90;1.00
19805;DHT22;10062;51.052;13.756;2022-12-18T05:31:07;-7.90;1.00
19805;DHT22;10062;51.052;13.756;2022-12-18T05:33:40;-7.90;1.00
19805;DHT22;10062;51.052;13.756;2022-12-18T05:36:12;-7.90;1.00
19805;DHT22;10062;51.052;13.756;2022-12-18T05:38:44;-8.00;1.00
19805;DHT22;10062;51.052;13.756;2022-12-18T05:41:16;-7.90;1.00
19805;DHT22;10062;51.052;13.756;2022-12-18T05:43:47;-8.00;1.00
19805;DHT22;10062;51.052;13.756;2022-12-18T05:46:19;-8.00;1.00
19805;DHT22;10062;51.052;13.756;2022-12-18T05:48:52;-8.00;1.00
19805;DHT22;10062;51.052;13.756;2022-12-18T05:51:24;-8.00;1.00
19805;DHT22;10062;51.052;13.756;2022-12-18T05:53:56;-8.00;1.00
19805;DHT22;10062;51.052;13.756;2022-12-18T05:56:27;-8.00;1.00
19805;DHT22;10062;51.052;13.756;2022-12-18T05:58:59;-8.00;1.00
19805;DHT22;10062;51.052;13.756;2022-12-18T06:01:31;-8.00;1.00
19805;DHT22;10062;51.052;13.756;2022-12-18T06:04:04;-8.10;1.00
19805;DHT22;10062;51.052;13.756;2022-12-18T06:06:36;-8.10;1.00
19805;DHT22;10062;51.052;13.756;2022-12-18T06:09:08;-8.10;1.00
19805;DHT22;10062;51.052;13.756;2022-12-18T06:11:40;-8.10;1.00
19805;DHT22;10062;51.052;13.756;2022-12-18T06:14:12;-8.10;1.00
19805;DHT22;10062;51.052;13.756;2022-12-18T06:16:43;-8.10;1.00
19805;DHT22;10062;51.052;13.756;2022-12-18T06:19:17;-8.10;1.00
19805;DHT22;10062;51.052;13.756;2022-12-18T06:21:48;-8.10;1.00
19805;DHT22;10062;51.052;13.756;2022-12-18T06:24:20;-8.20;1.00
19805;DHT22;10062;51.052;13.756;2022-12-18T06:26:52;-8.20;1.00
19805;DHT22;10062;51.052;13.756;2022-12-18T06:29:24;-7.10;1.00
19805;DHT22;10062;51.052;13.756;2022-12-18T06:31:56;-8.20;1.00
19805;DHT22;10062;51.052;13.756;2022-12-18T06:34:31;-8.20;1.00
19805;DHT22;10062;51.052;13.756;2022-12-18T06:37:03;-8.30;1.00
19805;DHT22;10062;51.052;13.756;2022-12-18T06:39:35;-8.20;1.00
19805;DHT22;10062;51.052;13.756;2022-12-18T06:42:07;-8.20;1.00
19805;DHT22;10062;51.052;13.756;2022-12-18T06:44:39;-8.30;1.00
19805;DHT22;10062;51.052;13.756;2022-12-18T06:47:10;-8.40;1.00
19805;DHT22;10062;51.052;13.756;2022-12-18T06:49:44;-8.50;1.00
19805;DHT22;10062;51.052;13.756;2022-12-18T06:52:16;-8.50;1.00
19805;DHT22;10062;51.052;13.756;2022-12-18T06:54:48;-8.50;1.00
19805;DHT22;10062;51.052;13.756;2022-12-18T06:57:19;-8.50;1.00
19805;DHT22;10062;51.052;13.756;2022-12-18T06:59:51;-8.50;1.00
19805;DHT22;10062;51.052;13.756;2022-12-18T07:02:23;-8.40;1.00
19805;DHT22;10062;51.052;13.756;2022-12-18T07:04:56;-8.40;1.00
19805;DHT22;10062;51.052;13.756;2022-12-18T07:07:28;-8.50;1.00
19805;DHT22;10062;51.052;13.756;2022-12-18T07:09:59;-8.50;1.00
19805;DHT22;10062;51.052;13.756;2022-12-18T07:12:31;-8.50;1.00
19805;DHT22;10062;51.052;13.756;2022-12-18T07:15:04;-8.40;1.00
19805;DHT22;10062;51.052;13.756;2022-12-18T07:17:36;-8.40;1.00
19805;DHT22;10062;51.052;13.756;2022-12-18T07:20:10;-8.50;1.00
19805;DHT22;10062;51.052;13.756;2022-12-18T07:22:42;-8.50;1.00
19805;DHT22;10062;51.052;13.756;2022-12-18T07:25:14;-8.50;1.00
19805;DHT22;10062;51.052;13.756;2022-12-18T07:27:46;-8.50;1.00
19805;DHT22;10062;51.052;13.756;2022-12-18T07:30:17;-8.50;1.00
19805;DHT22;10062;51.052;13.756;2022-12-18T07:32:49;-8.60;1.00
19805;DHT22;10062;51.052;13.756;2022-12-18T07:35:22;-8.50;1.00
19805;DHT22;10062;51.052;13.756;2022-12-18T07:37:54;-8.50;1.00
19805;DHT22;10062;51.052;13.756;2022-12-18T07:40:26;-8.50;1.00
19805;DHT22;10062;51.052;13.756;2022-12-18T07:42:57;-8.50;1.00
19805;DHT22;10062;51.052;13.756;2022-12-18T07:45:29;-8.50;1.00
19805;DHT22;10062;51.052;13.756;2022-12-18T07:48:01;-8.50;1.00
19805;DHT22;10062;51.052;13.756;2022-12-18T07:50:35;-8.40;1.00
19805;DHT22;10062;51.052;13.756;2022-12-18T07:53:06;-8.50;1.00
19805;DHT22;10062;51.052;13.756;2022-12-18T07:55:38;-8.40;1.00
19805;DHT22;10062;51.052;13.756;2022-12-18T07:58:10;-8.40;1.00
19805;DHT22;10062;51.052;13.756;2022-12-18T08:00:42;-8.40;1.00
19805;DHT22;10062;51.052;13.756;2022-12-18T08:03:13;-8.50;1.00
19805;DHT22;10062;51.052;13.756;2022-12-18T08:05:47;-8.40;1.00
19805;DHT22;10062;51.052;13.756;2022-12-18T08:08:18;-8.40;1.00
19805;DHT22;10062;51.052;13.756;2022-12-18T08:10:50;-8.40;1.00
19805;DHT22;10062;51.052;13.756;2022-12-18T08:13:22;-8.40;1.00
19805;DHT22;10062;51.052;13.756;2022-12-18T08:15:57;-8.30;1.00
19805;DHT22;10062;51.052;13.756;2022-12-18T08:18:33;-8.30;1.00
19805;DHT22;10062;51.052;13.756;2022-12-18T08:21:10;-8.20;1.00
19805;DHT22;10062;51.052;13.756;2022-12-18T08:23:42;-8.20;1.00
19805;DHT22;10062;51.052;13.756;2022-12-18T08:26:14;-8.20;1.00
19805;DHT22;10062;51.052;13.756;2022-12-18T08:28:46;-8.10;1.00
19805;DHT22;10062;51.052;13.756;2022-12-18T08:31:18;-8.10;1.00
19805;DHT22;10062;51.052;13.756;2022-12-18T08:33:51;-8.10;1.00
19805;DHT22;10062;51.052;13.756;2022-12-18T08:36:24;-8.00;1.00
19805;DHT22;10062;51.052;13.756;2022-12-18T08:38:56;-7.90;1.00
19805;DHT22;10062;51.052;13.756;2022-12-18T08:41:28;-7.80;1.00
19805;DHT22;10062;51.052;13.756;2022-12-18T08:44:00;-7.80;1.00
19805;DHT22;10062;51.052;13.756;2022-12-18T08:46:49;-7.70;1.00
19805;DHT22;10062;51.052;13.756;2022-12-18T08:49:21;-7.60;1.00
19805;DHT22;10062;51.052;13.756;2022-12-18T08:51:55;-7.40;1.00
19805;DHT22;10062;51.052;13.756;2022-12-18T08:54:28;-7.20;1.00
19805;DHT22;10062;51.052;13.756;2022-12-18T08:57:00;-7.00;1.00
19805;DHT22;10062;51.052;13.756;2022-12-18T08:59:31;-6.80;1.00
19805;DHT22;10062;51.052;13.756;2022-12-18T09:02:03;-6.50;1.00
19805;DHT22;10062;51.052;13.756;2022-12-18T09:04:35;-6.20;1.00
19805;DHT22;10062;51.052;13.756;2022-12-18T09:07:08;-5.90;1.00
19805;DHT22;10062;51.052;13.756;2022-12-18T09:09:40;-5.70;1.00
19805;DHT22;10062;51.052;13.756;2022-12-18T09:12:11;-5.50;1.00
19805;DHT22;10062;51.052;13.756;2022-12-18T09:14:43;-5.30;1.00
19805;DHT22;10062;51.052;13.756;2022-12-18T09:17:15;-5.10;1.00
19805;DHT22;10062;51.052;13.756;2022-12-18T09:19:47;-4.80;1.00
19805;DHT22;10062;51.052;13.756;2022-12-18T09:22:20;-4.70;1.00
19805;DHT22;10062;51.052;13.756;2022-12-18T09:24:52;-4.50;1.00
19805;DHT22;10062;51.052;13.756;2022-12-18T09:27:24;-4.20;1.00
19805;DHT22;10062;51.052;13.756;2022-12-18T09:29:56;-4.10;1.00
19805;DHT22;10062;51.052;13.756;2022-12-18T09:32:28;-3.90;1.00
19805;DHT22;10062;51.052;13.756;2022-12-18T09:35:00;-3.70;1.00
19805;DHT22;10062;51.052;13.756;2022-12-18T09:37:33;-3.60;1.00
19805;DHT22;10062;51.052;13.756;2022-12-18T09:40:06;-3.10;1.00
19805;DHT22;10062;51.052;13.756;2022-12-18T09:42:38;-3.10;1.00
19805;DHT22;10062;51.052;13.756;2022-12-18T09:45:13;-1.00;1.00
19805;DHT22;10062;51.052;13.756;2022-12-18T09:47:47;-2.80;1.00
19805;DHT22;10062;51.052;13.756;2022-12-18T09:50:25;-2.60;1.00
19805;DHT22;10062;51.052;13.756;2022-12-18T09:53:06;-2.50;1.00
19805;DHT22;10062;51.052;13.756;2022-12-18T09:55:43;-2.30;1.00
19805;DHT22;10062;51.052;13.756;2022-12-18T09:58:19;-2.20;1.00
19805;DHT22;10062;51.052;13.756;2022-12-18T10:00:52;-1.90;1.00
19805;DHT22;10062;51.052;13.756;2022-12-18T10:03:24;-1.70;99.90
19805;DHT22;10062;51.052;13.756;2022-12-18T10:06:04;-1.50;99.90
19805;DHT22;10062;51.052;13.756;2022-12-18T10:08:43;-1.30;1.00
19805;DHT22;10062;51.052;13.756;2022-12-18T10:11:34;-1.10;1.00
19805;DHT22;10062;51.052;13.756;2022-12-18T10:14:18;-1.30;99.90
19805;DHT22;10062;51.052;13.756;2022-12-18T10:16:58;-1.00;1.00
19805;DHT22;10062;51.052;13.756;2022-12-18T10:19:39;-0.80;1.00
19805;DHT22;10062;51.052;13.756;2022-12-18T10:22:21;-0.70;1.00
19805;DHT22;10062;51.052;13.756;2022-12-18T10:25:01;-0.50;1.00
19805;DHT22;10062;51.052;13.756;2022-12-18T10:27:34;-0.40;1.00
19805;DHT22;10062;51.052;13.756;2022-12-18T10:30:13;-0.30;15.10
19805;DHT22;10062;51.052;13.756;2022-12-18T10:32:45;-0.20;1.00
19805;DHT22;10062;51.052;13.756;2022-12-18T10:35:19;-0.10;99.90
19805;DHT22;10062;51.052;13.756;2022-12-18T10:38:21;0.00;99.90
19805;DHT22;10062;51.052;13.756;2022-12-18T10:40:57;0.10;1.00
19805;DHT22;10062;51.052;13.756;2022-12-18T10:43:30;0.20;1.00
19805;DHT22;10062;51.052;13.756;2022-12-18T10:46:12;0.40;99.90
19805;DHT22;10062;51.052;13.756;2022-12-18T10:48:51;0.40;1.00
19805;DHT22;10062;51.052;13.756;2022-12-18T10:51:27;0.50;1.00
19805;DHT22;10062;51.052;13.756;2022-12-18T10:54:01;0.60;1.00
19805;DHT22;10062;51.052;13.756;2022-12-18T10:56:36;0.50;99.90
19805;DHT22;10062;51.052;13.756;2022-12-18T10:59:09;0.20;99.90
19805;DHT22;10062;51.052;13.756;2022-12-18T11:01:47;0.30;1.00
19805;DHT22;10062;51.052;13.756;2022-12-18T11:04:22;0.60;99.90
19805;DHT22;10062;51.052;13.756;2022-12-18T11:06:56;0.80;1.00
19805;DHT22;10062;51.052;13.756;2022-12-18T11:09:30;0.90;1.00
19805;DHT22;10062;51.052;13.756;2022-12-18T11:12:17;0.90;1.00
19805;DHT22;10062;51.052;13.756;2022-12-18T11:14:51;0.90;1.00
19805;DHT22;10062;51.052;13.756;2022-12-18T11:17:28;0.90;1.00
19805;DHT22;10062;51.052;13.756;2022-12-18T11:20:03;1.00;1.00
19805;DHT22;10062;51.052;13.756;2022-12-18T11:22:36;1.10;99.90
19805;DHT22;10062;51.052;13.756;2022-12-18T11:25:18;1.20;99.90
19805;DHT22;10062;51.052;13.756;2022-12-18T11:27:53;1.10;99.90
19805;DHT22;10062;51.052;13.756;2022-12-18T11:30:27;1.20;99.90
19805;DHT22;10062;51.052;13.756;2022-12-18T11:33:04;1.30;1.00
19805;DHT22;10062;51.052;13.756;2022-12-18T11:35:49;1.30;16.70
19805;DHT22;10062;51.052;13.756;2022-12-18T11:38:24;1.30;1.00
19805;DHT22;10062;51.052;13.756;2022-12-18T11:40:59;1.40;1.00
19805;DHT22;10062;51.052;13.756;2022-12-18T11:43:37;1.40;1.00
19805;DHT22;10062;51.052;13.756;2022-12-18T11:46:12;1.60;1.00
19805;DHT22;10062;51.052;13.756;2022-12-18T11:48:49;1.60;1.00
19805;DHT22;10062;51.052;13.756;2022-12-18T11:51:26;1.50;1.00
19805;DHT22;10062;51.052;13.756;2022-12-18T11:54:00;1.60;1.00
19805;DHT22;10062;51.052;13.756;2022-12-18T11:56:35;1.80;1.00
19805;DHT22;10062;51.052;13.756;2022-12-18T11:59:15;2.00;1.00
19805;DHT22;10062;51.052;13.756;2022-12-18T12:01:52;2.00;1.00
19805;DHT22;10062;51.052;13.756;2022-12-18T12:04:38;2.00;1.00
19805;DHT22;10062;51.052;13.756;2022-12-18T12:07:22;2.00;1.00
19805;DHT22;10062;51.052;13.756;2022-12-18T12:10:07;2.00;99.90
19805;DHT22;10062;51.052;13.756;2022-12-18T12:12:54;1.90;99.90
19805;DHT22;10062;51.052;13.756;2022-12-18T12:15:34;1.70;99.90
19805;DHT22;10062;51.052;13.756;2022-12-18T12:18:18;1.80;1.00
19805;DHT22;10062;51.052;13.756;2022-12-18T12:21:00;1.80;1.00
19805;DHT22;10062;51.052;13.756;2022-12-18T12:23:40;1.80;1.00
19805;DHT22;10062;51.052;13.756;2022-12-18T12:26:20;1.80;1.00
19805;DHT22;10062;51.052;13.756;2022-12-18T12:29:01;1.80;99.90
19805;DHT22;10062;51.052;13.756;2022-12-18T12:31:50;1.80;99.90
19805;DHT22;10062;51.052;13.756;2022-12-18T12:34:29;1.70;99.90
19805;DHT22;10062;51.052;13.756;2022-12-18T12:37:11;1.70;1.00
19805;DHT22;10062;51.052;13.756;2022-12-18T12:39:47;1.20;99.90
19805;DHT22;10062;51.052;13.756;2022-12-18T12:42:32;1.20;1.00
19805;DHT22;10062;51.052;13.756;2022-12-18T12:45:26;1.20;1.00
19805;DHT22;10062;51.052;13.756;2022-12-18T12:48:02;1.20;1.00
19805;DHT22;10062;51.052;13.756;2022-12-18T12:50:35;1.10;1.00
19805;DHT22;10062;51.052;13.756;2022-12-18T12:53:09;0.60;1.00
19805;DHT22;10062;51.052;13.756;2022-12-18T12:55:45;0.30;99.90
19805;DHT22;10062;51.052;13.756;2022-12-18T12:58:24;0.40;57.00
19805;DHT22;10062;51.052;13.756;2022-12-18T13:01:05;0.30;1.00
19805;DHT22;10062;51.052;13.756;2022-12-18T13:03:47;0.30;1.00
19805;DHT22;10062;51.052;13.756;2022-12-18T13:06:30;-0.10;1.00
19805;DHT22;10062;51.052;13.756;2022-12-18T13:09:04;0.10;1.00
19805;DHT22;10062;51.052;13.756;2022-12-18T13:11:38;0.00;99.90
19805;DHT22;10062;51.052;13.756;2022-12-18T13:14:30;-0.10;1.00
19805;DHT22;10062;51.052;13.756;2022-12-18T13:17:27;-0.10;1.00
19805;DHT22;10062;51.052;13.756;2022-12-18T13:20:07;-0.40;1.00
19805;DHT22;10062;51.052;13.756;2022-12-18T13:22:43;-0.60;63.50
19805;DHT22;10062;51.052;13.756;2022-12-18T13:25:32;-0.60;99.90
19805;DHT22;10062;51.052;13.756;2022-12-18T13:28:10;-0.70;99.90
19805;DHT22;10062;51.052;13.756;2022-12-18T13:31:04;-0.80;1.00
19805;DHT22;10062;51.052;13.756;2022-12-18T13:33:43;-0.90;1.00
19805;DHT22;10062;51.052;13.756;2022-12-18T13:36:27;-1.10;1.00
19805;DHT22;10062;51.052;13.756;2022-12-18T13:39:21;-1.10;1.00
19805;DHT22;10062;51.052;13.756;2022-12-18T13:45:45;-1.50;1.00
19805;DHT22;10062;51.052;13.756;2022-12-18T13:48:24;-1.50;1.00
19805;DHT22;10062;51.052;13.756;2022-12-18T13:51:03;-1.70;1.00
19805;DHT22;10062;51.052;13.756;2022-12-18T13:53:42;-1.50;1.00
19805;DHT22;10062;51.052;13.756;2022-12-18T13:56:16;-1.60;99.90
19805;DHT22;10062;51.052;13.756;2022-12-18T13:59:10;-1.40;1.00
19805;DHT22;10062;51.052;13.756;2022-12-18T14:01:45;-1.30;1.00
19805;DHT22;10062;51.052;13.756;2022-12-18T14:04:20;-1.40;1.00
19805;DHT22;10062;51.052;13.756;2022-12-18T14:06:56;-1.30;1.00
19805;DHT22;10062;51.052;13.756;2022-12-18T14:09:35;-1.70;1.00
19805;DHT22;10062;51.052;13.756;2022-12-18T14:12:15;-1.70;1.00
19805;DHT22;10062;51.052;13.756;2022-12-18T14:15:07;-1.60;1.00
19805;DHT22;10062;51.052;13.756;2022-12-18T14:17:46;-1.80;1.00
19805;DHT22;10062;51.052;13.756;2022-12-18T14:20:18;-1.80;1.00
19805;DHT22;10062;51.052;13.756;2022-12-18T14:22:51;-2.00;99.90
19805;DHT22;10062;51.052;13.756;2022-12-18T14:25:26;-2.00;99.90
19805;DHT22;10062;51.052;13.756;2022-12-18T14:28:04;-2.20;1.00
19805;DHT22;10062;51.052;13.756;2022-12-18T14:30:41;-2.20;1.00
19805;DHT22;10062;51.052;13.756;2022-12-18T14:33:16;-2.30;1.00
19805;DHT22;10062;51.052;13.756;2022-12-18T14:35:54;-2.30;27.80
19805;DHT22;10062;51.052;13.756;2022-12-18T14:38:28;-2.40;99.90
19805;DHT22;10062;51.052;13.756;2022-12-18T14:41:03;-2.40;99.90
19805;DHT22;10062;51.052;13.756;2022-12-18T14:43:37;-2.60;1.00
19805;DHT22;10062;51.052;13.756;2022-12-18T14:46:28;-2.80;1.00
19805;DHT22;10062;51.052;13.756;2022-12-18T14:49:02;-2.90;1.00
19805;DHT22;10062;51.052;13.756;2022-12-18T14:51:34;-2.80;1.00
19805;DHT22;10062;51.052;13.756;2022-12-18T14:54:16;-2.70;1.00
19805;DHT22;10062;51.052;13.756;2022-12-18T14:56:51;-2.80;1.00
19805;DHT22;10062;51.052;13.756;2022-12-18T14:59:28;-3.00;99.90
19805;DHT22;10062;51.052;13.756;2022-12-18T15:02:03;-2.90;99.90
19805;DHT22;10062;51.052;13.756;2022-12-18T15:04:38;-3.00;1.00
19805;DHT22;10062;51.052;13.756;2022-12-18T15:07:13;-3.00;99.90
19805;DHT22;10062;51.052;13.756;2022-12-18T15:10:03;-3.00;99.90
19805;DHT22;10062;51.052;13.756;2022-12-18T15:12:39;-3.20;1.00
19805;DHT22;10062;51.052;13.756;2022-12-18T15:15:49;-3.30;1.00
19805;DHT22;10062;51.052;13.756;2022-12-18T15:18:26;-3.20;1.00
19805;DHT22;10062;51.052;13.756;2022-12-18T15:21:07;-3.20;1.00
19805;DHT22;10062;51.052;13.756;2022-12-18T15:23:46;-3.30;1.00
19805;DHT22;10062;51.052;13.756;2022-12-18T15:26:20;-3.30;1.00
19805;DHT22;10062;51.052;13.756;2022-12-18T15:28:56;-3.30;1.00
19805;DHT22;10062;51.052;13.756;2022-12-18T15:31:30;-3.20;1.00
19805;DHT22;10062;51.052;13.756;2022-12-18T15:34:14;-3.50;1.00
19805;DHT22;10062;51.052;13.756;2022-12-18T15:36:50;-3.40;1.00
19805;DHT22;10062;51.052;13.756;2022-12-18T15:39:22;-3.40;1.00
19805;DHT22;10062;51.052;13.756;2022-12-18T15:41:54;-3.40;1.00
19805;DHT22;10062;51.052;13.756;2022-12-18T15:44:44;-3.40;1.00
19805;DHT22;10062;51.052;13.756;2022-12-18T15:47:16;-3.40;1.00
19805;DHT22;10062;51.052;13.756;2022-12-18T15:49:48;-3.40;1.00
19805;DHT22;10062;51.052;13.756;2022-12-18T15:52:20;-3.50;1.00
19805;DHT22;10062;51.052;13.756;2022-12-18T15:54:56;-3.60;1.00
19805;DHT22;10062;51.052;13.756;2022-12-18T15:57:45;-3.50;1.00
19805;DHT22;10062;51.052;13.756;2022-12-18T16:00:19;-3.50;1.00
19805;DHT22;10062;51.052;13.756;2022-12-18T16:02:51;-3.50;1.00
19805;DHT22;10062;51.052;13.756;2022-12-18T16:05:23;-3.50;1.00
19805;DHT22;10062;51.052;13.756;2022-12-18T16:07:55;-3.50;1.00
19805;DHT22;10062;51.052;13.756;2022-12-18T16:10:27;-3.50;1.00
19805;DHT22;10062;51.052;13.756;2022-12-18T16:12:59;-3.50;1.00
19805;DHT22;10062;51.052;13.756;2022-12-18T16:15:32;-3.60;1.00
19805;DHT22;10062;51.052;13.756;2022-12-18T16:18:04;-3.60;1.00
19805;DHT22;10062;51.052;13.756;2022-12-18T16:20:36;-3.60;1.00
19805;DHT22;10062;51.052;13.756;2022-12-18T16:23:09;-3.50;1.00
19805;DHT22;10062;51.052;13.756;2022-12-18T16:25:41;-3.50;1.00
19805;DHT22;10062;51.052;13.756;2022-12-18T16:28:13;-3.50;1.00
19805;DHT22;10062;51.052;13.756;2022-12-18T16:30:46;-3.50;1.00